KMLU/MLU METAR and TAF weather

Enter ICAO airport designator
Station Type Date Time Source
KMLU METAR 2020/04/04 10:53 UTC NOAA

KMLU 041053Z 08005KT 10SM BKN045 17/15 A2998 RMK AO2 SLP152 T01720150


Station Type Date Time Source
KMLU Decoded METAR 2020/04/04 10:53 UTC NOAA

MONROE REGIONAL AIRPORT, LA, United States (KMLU) 32-31N 092-02W 29M
Apr 04, 2020 - 06:53 AM EDT / 2020.04.04 1053 UTC
Wind: from the E (080 degrees) at 6 MPH (5 KT):0
Visibility: 10 mile(s):0
Sky conditions: mostly cloudy
Temperature: 63.0 F (17.2 C)
Dew Point: 59.0 F (15.0 C)
Relative Humidity: 86%
Pressure (altimeter): 29.98 in. Hg (1015 hPa)
ob: KMLU 041053Z 08005KT 10SM BKN045 17/15 A2998 RMK AO2 SLP152 T01720150
cycle: 11

Station Type Date Time Source
KMLU TAF 2020/04/04 06:42 UTC NOAA

TAF KMLU 040540Z 0406/0506 08003KT P6SM SKC
FM041800 VRB05KT P6SM VCSH OVC015
FM042300 VRB05KT P6SM -SHRA BKN015

Example: see airport list